ENOA

Oseberg A Platform Heliport

Norway
METAR ENOA 180250Z 33024KT 9999 BKN030 06/M01 Q1013 W///S5
Observed Flight Rules
Dec-18 @ 02:50 UTC (27 minutes ago) Marginal Visual Flight Rules
Wind Visibility Clouds
330° at 24 knots 10,000+ meters
  • Broken at 3,000' AGL
Temperatures Readings
Current 6°C / 43°F
Dewpoint -1°C / 30°F
Humidity 61%
Altimeter 29.91" Hg
Pressure 1013 hPa
Elevation 5
METAR ENOA 180250Z 33024KT 9999 BKN030 06/M01 Q1013 W///S5
Observed Flight Rules
Dec-18 @ 02:50 UTC
(27 minutes ago)
MVFR
Wind Visibility
330° at 24 knots 10,000+ meters
Clouds
  • Broken at 3,000' AGL
Temperature Dewpoint
6°C / 43°F -1°C / 30°F
Humidity Altimeter Pressure
61% 29.91" Hg 1013 hPa